sensor_id;sensor_type;location;lat;lon;timestamp;pressure;altitude;pressure_sealevel;temperature;humidity
13765;BME280;6953;48.810;9.204;2023-02-21T00:01:08;99027.94;;;4.08;89.60
13765;BME280;6953;48.810;9.204;2023-02-21T00:03:51;99272.47;;;5.48;90.38
13765;BME280;6953;48.810;9.204;2023-02-21T00:06:35;99008.25;;;3.99;90.68
13765;BME280;6953;48.810;9.204;2023-02-21T00:09:19;99278.31;;;5.59;90.25
13765;BME280;6953;48.810;9.204;2023-02-21T00:12:03;99283.59;;;5.56;90.37
13765;BME280;6953;48.810;9.204;2023-02-21T00:14:47;99179.72;;;5.12;89.73
13765;BME280;6953;48.810;9.204;2023-02-21T00:17:30;99269.34;;;5.70;89.78
13765;BME280;6953;48.810;9.204;2023-02-21T00:20:14;99046.25;;;4.42;89.70
13765;BME280;6953;48.810;9.204;2023-02-21T00:22:58;99269.44;;;5.66;89.60
13765;BME280;6953;48.810;9.204;2023-02-21T00:25:42;99185.75;;;5.12;89.54
13765;BME280;6953;48.810;9.204;2023-02-21T00:28:26;99239.72;;;5.39;89.92
13765;BME280;6953;48.810;9.204;2023-02-21T00:31:09;98981.81;;;3.83;90.34
13765;BME280;6953;48.810;9.204;2023-02-21T00:33:53;99135.38;;;4.80;90.64
13765;BME280;6953;48.810;9.204;2023-02-21T00:36:37;99248.88;;;5.55;90.25
13765;BME280;6953;48.810;9.204;2023-02-21T00:39:21;98972.16;;;3.90;89.94
13765;BME280;6953;48.810;9.204;2023-02-21T00:42:05;99253.19;;;5.58;90.30
13765;BME280;6953;48.810;9.204;2023-02-21T00:44:49;99021.50;;;4.26;90.40
13765;BME280;6953;48.810;9.204;2023-02-21T00:47:33;99311.06;;;5.67;89.90
13765;BME280;6953;48.810;9.204;2023-02-21T00:50:16;99219.81;;;5.38;89.91
13765;BME280;6953;48.810;9.204;2023-02-21T00:53:00;99194.06;;;5.28;89.89
13765;BME280;6953;48.810;9.204;2023-02-21T00:55:44;99245.94;;;5.34;90.73
13765;BME280;6953;48.810;9.204;2023-02-21T00:58:27;99176.22;;;5.13;90.68
13765;BME280;6953;48.810;9.204;2023-02-21T01:01:11;98965.38;;;3.83;90.15
13765;BME280;6953;48.810;9.204;2023-02-21T01:03:57;99174.78;;;5.00;89.88
13765;BME280;6953;48.810;9.204;2023-02-21T01:06:41;99248.09;;;5.15;91.14
13765;BME280;6953;48.810;9.204;2023-02-21T01:09:25;98935.75;;;3.53;90.91
13765;BME280;6953;48.810;9.204;2023-02-21T01:12:09;99240.69;;;5.35;91.07
13765;BME280;6953;48.810;9.204;2023-02-21T01:14:52;98970.00;;;3.69;91.03
13765;BME280;6953;48.810;9.204;2023-02-21T01:17:36;99122.88;;;4.59;92.13
13765;BME280;6953;48.810;9.204;2023-02-21T01:20:20;99249.69;;;5.22;91.41
13765;BME280;6953;48.810;9.204;2023-02-21T01:23:04;99232.78;;;5.02;92.55
13765;BME280;6953;48.810;9.204;2023-02-21T01:25:47;99259.38;;;5.16;92.87
13765;BME280;6953;48.810;9.204;2023-02-21T01:28:31;99265.78;;;5.00;92.33
13765;BME280;6953;48.810;9.204;2023-02-21T01:31:19;99232.84;;;5.01;93.45
13765;BME280;6953;48.810;9.204;2023-02-21T01:34:04;99148.28;;;4.47;93.46
13765;BME280;6953;48.810;9.204;2023-02-21T01:36:48;99243.28;;;4.99;93.18
13765;BME280;6953;48.810;9.204;2023-02-21T01:39:32;99167.19;;;4.53;93.84
13765;BME280;6953;48.810;9.204;2023-02-21T01:42:16;99271.13;;;4.94;93.90
13765;BME280;6953;48.810;9.204;2023-02-21T01:48:05;99239.53;;;5.12;94.74
13765;BME280;6953;48.810;9.204;2023-02-21T01:50:51;99208.72;;;4.94;94.74
13765;BME280;6953;48.810;9.204;2023-02-21T01:53:36;99237.88;;;5.08;94.81
13765;BME280;6953;48.810;9.204;2023-02-21T01:56:20;99235.25;;;5.10;95.95
13765;BME280;6953;48.810;9.204;2023-02-21T01:59:04;98939.56;;;3.37;95.46
13765;BME280;6953;48.810;9.204;2023-02-21T02:01:52;99235.25;;;5.10;96.04
13765;BME280;6953;48.810;9.204;2023-02-21T02:04:39;99140.34;;;4.54;96.42
13765;BME280;6953;48.810;9.204;2023-02-21T02:07:24;99230.91;;;5.10;96.47
13765;BME280;6953;48.810;9.204;2023-02-21T02:10:09;99156.41;;;4.70;96.60
13765;BME280;6953;48.810;9.204;2023-02-21T02:37:52;99228.59;;;4.97;98.61
13765;BME280;6953;48.810;9.204;2023-02-21T02:40:44;99070.69;;;4.32;99.06
13765;BME280;6953;48.810;9.204;2023-02-21T02:43:30;98913.75;;;3.33;98.51
13765;BME280;6953;48.810;9.204;2023-02-21T02:48:54;99209.44;;;5.01;98.57
13765;BME280;6953;48.810;9.204;2023-02-21T02:51:22;99172.66;;;4.79;98.61
13765;BME280;6953;48.810;9.204;2023-02-21T02:53:47;99194.84;;;4.95;99.43
13765;BME280;6953;48.810;9.204;2023-02-21T02:56:14;99196.44;;;5.01;99.72
13765;BME280;6953;48.810;9.204;2023-02-21T02:58:52;99199.88;;;5.01;99.39
13765;BME280;6953;48.810;9.204;2023-02-21T03:09:48;99207.38;;;4.78;99.77
13765;BME280;6953;48.810;9.204;2023-02-21T03:17:59;99193.38;;;4.82;100.00
13765;BME280;6953;48.810;9.204;2023-02-21T03:20:28;99213.22;;;4.86;100.00
13765;BME280;6953;48.810;9.204;2023-02-21T03:22:57;99174.28;;;4.45;100.00
13765;BME280;6953;48.810;9.204;2023-02-21T03:25:26;99189.47;;;4.63;100.00
13765;BME280;6953;48.810;9.204;2023-02-21T03:27:54;99185.34;;;4.55;100.00
13765;BME280;6953;48.810;9.204;2023-02-21T03:30:20;99211.91;;;4.69;100.00
13765;BME280;6953;48.810;9.204;2023-02-21T03:32:48;99209.38;;;4.64;100.00
13765;BME280;6953;48.810;9.204;2023-02-21T03:35:16;99112.06;;;4.00;100.00
13765;BME280;6953;48.810;9.204;2023-02-21T03:37:44;99234.81;;;4.49;99.75
13765;BME280;6953;48.810;9.204;2023-02-21T03:40:23;99202.13;;;4.39;99.71
13765;BME280;6953;48.810;9.204;2023-02-21T03:42:50;99157.47;;;3.78;100.00
13765;BME280;6953;48.810;9.204;2023-02-21T03:45:16;98846.88;;;2.18;100.00
13765;BME280;6953;48.810;9.204;2023-02-21T03:47:41;98947.59;;;2.80;100.00
13765;BME280;6953;48.810;9.204;2023-02-21T03:50:07;99211.91;;;4.28;100.00
13765;BME280;6953;48.810;9.204;2023-02-21T03:52:33;99207.50;;;4.30;100.00
13765;BME280;6953;48.810;9.204;2023-02-21T03:54:58;99181.00;;;4.14;100.00
13765;BME280;6953;48.810;9.204;2023-02-21T03:57:23;99209.19;;;4.32;100.00
13765;BME280;6953;48.810;9.204;2023-02-21T03:59:49;99120.38;;;3.75;100.00
13765;BME280;6953;48.810;9.204;2023-02-21T04:02:14;98921.16;;;2.63;100.00
13765;BME280;6953;48.810;9.204;2023-02-21T04:04:40;99205.78;;;4.29;100.00
13765;BME280;6953;48.810;9.204;2023-02-21T04:07:05;99124.47;;;3.85;100.00
13765;BME280;6953;48.810;9.204;2023-02-21T04:09:31;99156.25;;;3.97;100.00
13765;BME280;6953;48.810;9.204;2023-02-21T04:11:56;99204.28;;;4.19;100.00
13765;BME280;6953;48.810;9.204;2023-02-21T04:14:21;99239.78;;;4.17;100.00
13765;BME280;6953;48.810;9.204;2023-02-21T04:16:47;99247.66;;;4.12;100.00
13765;BME280;6953;48.810;9.204;2023-02-21T04:19:12;99214.00;;;4.08;100.00
13765;BME280;6953;48.810;9.204;2023-02-21T04:21:37;99182.34;;;3.90;100.00
13765;BME280;6953;48.810;9.204;2023-02-21T04:24:03;98955.78;;;2.56;100.00
13765;BME280;6953;48.810;9.204;2023-02-21T04:26:28;99210.66;;;4.03;100.00
13765;BME280;6953;48.810;9.204;2023-02-21T04:28:54;98942.13;;;2.48;100.00
13765;BME280;6953;48.810;9.204;2023-02-21T04:31:21;99207.97;;;4.07;100.00
13765;BME280;6953;48.810;9.204;2023-02-21T04:33:46;99203.81;;;3.98;100.00
13765;BME280;6953;48.810;9.204;2023-02-21T04:36:12;99106.25;;;3.44;100.00
13765;BME280;6953;48.810;9.204;2023-02-21T04:38:38;99244.34;;;4.05;100.00
13765;BME280;6953;48.810;9.204;2023-02-21T04:41:03;99221.03;;;4.03;100.00
13765;BME280;6953;48.810;9.204;2023-02-21T04:43:29;99221.09;;;4.00;100.00
13765;BME280;6953;48.810;9.204;2023-02-21T04:45:54;99241.84;;;3.99;100.00
13765;BME280;6953;48.810;9.204;2023-02-21T04:48:20;99215.91;;;3.99;100.00
13765;BME280;6953;48.810;9.204;2023-02-21T04:50:45;99122.63;;;3.46;100.00
13765;BME280;6953;48.810;9.204;2023-02-21T04:53:11;98936.22;;;2.40;100.00
13765;BME280;6953;48.810;9.204;2023-02-21T04:55:36;99028.03;;;2.74;100.00
13765;BME280;6953;48.810;9.204;2023-02-21T04:58:02;99126.00;;;3.51;100.00
13765;BME280;6953;48.810;9.204;2023-02-21T05:00:30;98933.13;;;2.19;100.00
13765;BME280;6953;48.810;9.204;2023-02-21T05:02:56;99092.50;;;3.39;100.00
13765;BME280;6953;48.810;9.204;2023-02-21T05:05:21;99204.59;;;4.03;100.00
13765;BME280;6953;48.810;9.204;2023-02-21T05:07:46;99205.47;;;4.03;100.00
13765;BME280;6953;48.810;9.204;2023-02-21T05:10:14;99125.81;;;3.61;100.00
13765;BME280;6953;48.810;9.204;2023-02-21T05:12:40;99176.94;;;4.00;100.00
13765;BME280;6953;48.810;9.204;2023-02-21T05:15:06;99198.34;;;4.12;100.00
13765;BME280;6953;48.810;9.204;2023-02-21T05:17:32;99147.66;;;3.94;100.00
13765;BME280;6953;48.810;9.204;2023-02-21T05:19:57;99152.88;;;3.94;100.00
13765;BME280;6953;48.810;9.204;2023-02-21T05:22:23;99113.53;;;3.71;100.00
13765;BME280;6953;48.810;9.204;2023-02-21T05:24:49;99187.06;;;4.13;100.00
13765;BME280;6953;48.810;9.204;2023-02-21T05:27:16;99120.44;;;3.70;100.00
13765;BME280;6953;48.810;9.204;2023-02-21T05:29:46;98947.78;;;2.70;100.00
13765;BME280;6953;48.810;9.204;2023-02-21T05:32:11;99081.13;;;3.46;100.00
13765;BME280;6953;48.810;9.204;2023-02-21T05:34:37;99201.00;;;4.08;100.00
13765;BME280;6953;48.810;9.204;2023-02-21T05:37:02;99046.25;;;3.16;100.00
13765;BME280;6953;48.810;9.204;2023-02-21T05:39:27;99199.31;;;4.07;100.00
13765;BME280;6953;48.810;9.204;2023-02-21T05:41:53;99197.56;;;4.07;100.00
13765;BME280;6953;48.810;9.204;2023-02-21T05:44:18;99168.59;;;3.86;100.00
13765;BME280;6953;48.810;9.204;2023-02-21T05:46:43;99195.50;;;4.24;100.00
13765;BME280;6953;48.810;9.204;2023-02-21T05:49:10;99195.47;;;4.26;100.00
13765;BME280;6953;48.810;9.204;2023-02-21T05:51:38;99168.91;;;4.13;100.00
13765;BME280;6953;48.810;9.204;2023-02-21T05:54:05;99197.94;;;4.32;100.00
13765;BME280;6953;48.810;9.204;2023-02-21T05:56:37;99189.41;;;4.25;100.00
13765;BME280;6953;48.810;9.204;2023-02-21T05:59:03;99219.78;;;4.22;100.00
13765;BME280;6953;48.810;9.204;2023-02-21T06:01:28;99201.56;;;4.25;100.00
13765;BME280;6953;48.810;9.204;2023-02-21T06:03:53;99163.19;;;3.97;100.00
13765;BME280;6953;48.810;9.204;2023-02-21T06:06:18;99231.84;;;4.26;100.00
13765;BME280;6953;48.810;9.204;2023-02-21T06:08:48;99194.50;;;4.30;100.00
13765;BME280;6953;48.810;9.204;2023-02-21T06:11:20;99166.25;;;4.15;100.00
13765;BME280;6953;48.810;9.204;2023-02-21T06:13:49;99113.22;;;3.87;100.00
13765;BME280;6953;48.810;9.204;2023-02-21T06:16:14;99192.78;;;4.30;100.00
13765;BME280;6953;48.810;9.204;2023-02-21T06:18:40;99190.09;;;4.35;100.00
13765;BME280;6953;48.810;9.204;2023-02-21T06:21:05;98961.03;;;3.00;100.00
13765;BME280;6953;48.810;9.204;2023-02-21T06:23:30;98896.97;;;2.64;100.00
13765;BME280;6953;48.810;9.204;2023-02-21T06:25:56;99197.00;;;4.36;100.00
13765;BME280;6953;48.810;9.204;2023-02-21T06:28:26;99195.56;;;4.21;100.00
13765;BME280;6953;48.810;9.204;2023-02-21T06:30:52;99195.13;;;4.42;100.00
13765;BME280;6953;48.810;9.204;2023-02-21T06:33:17;99207.88;;;4.53;100.00
13765;BME280;6953;48.810;9.204;2023-02-21T06:35:43;99205.22;;;4.57;100.00
13765;BME280;6953;48.810;9.204;2023-02-21T06:38:08;99110.09;;;4.11;100.00
13765;BME280;6953;48.810;9.204;2023-02-21T06:40:33;99210.94;;;4.73;100.00
13765;BME280;6953;48.810;9.204;2023-02-21T06:42:59;99156.31;;;4.35;100.00
13765;BME280;6953;48.810;9.204;2023-02-21T06:45:24;99056.19;;;3.83;100.00
13765;BME280;6953;48.810;9.204;2023-02-21T06:47:49;99192.94;;;4.64;100.00
13765;BME280;6953;48.810;9.204;2023-02-21T06:50:15;99210.88;;;4.76;100.00
13765;BME280;6953;48.810;9.204;2023-02-21T06:52:40;99197.91;;;4.74;100.00
13765;BME280;6953;48.810;9.204;2023-02-21T06:55:06;99209.44;;;4.63;100.00
13765;BME280;6953;48.810;9.204;2023-02-21T06:57:32;99249.78;;;4.79;100.00
13765;BME280;6953;48.810;9.204;2023-02-21T06:59:57;98922.94;;;3.05;99.99
13765;BME280;6953;48.810;9.204;2023-02-21T07:02:22;98885.28;;;2.88;100.00
13765;BME280;6953;48.810;9.204;2023-02-21T07:04:47;99225.56;;;4.77;100.00
13765;BME280;6953;48.810;9.204;2023-02-21T07:07:13;99141.22;;;4.52;100.00
13765;BME280;6953;48.810;9.204;2023-02-21T07:09:39;99183.00;;;4.82;99.89
13765;BME280;6953;48.810;9.204;2023-02-21T07:12:04;99237.97;;;5.04;99.48
13765;BME280;6953;48.810;9.204;2023-02-21T07:14:30;99207.44;;;5.11;99.29
13765;BME280;6953;48.810;9.204;2023-02-21T07:16:55;99107.28;;;4.59;99.47
13765;BME280;6953;48.810;9.204;2023-02-21T07:19:20;99212.25;;;5.29;99.06
13765;BME280;6953;48.810;9.204;2023-02-21T07:21:46;99204.06;;;5.44;99.17
13765;BME280;6953;48.810;9.204;2023-02-21T07:24:13;99206.16;;;5.64;97.75
13765;BME280;6953;48.810;9.204;2023-02-21T07:26:38;99207.66;;;5.74;96.13
13765;BME280;6953;48.810;9.204;2023-02-21T07:29:04;99218.66;;;5.86;95.94
13765;BME280;6953;48.810;9.204;2023-02-21T07:31:30;99075.28;;;5.28;93.96
13765;BME280;6953;48.810;9.204;2023-02-21T07:33:55;99199.81;;;6.09;92.94
13765;BME280;6953;48.810;9.204;2023-02-21T07:36:20;99170.47;;;6.02;92.53
13765;BME280;6953;48.810;9.204;2023-02-21T07:38:47;99203.53;;;6.30;92.21
13765;BME280;6953;48.810;9.204;2023-02-21T07:41:13;99245.00;;;6.38;91.27
13765;BME280;6953;48.810;9.204;2023-02-21T07:43:39;99182.63;;;6.32;91.10
13765;BME280;6953;48.810;9.204;2023-02-21T07:46:11;99195.94;;;6.53;89.02
13765;BME280;6953;48.810;9.204;2023-02-21T07:48:37;99158.03;;;6.42;88.35
13765;BME280;6953;48.810;9.204;2023-02-21T07:51:02;98920.56;;;5.11;87.80
13765;BME280;6953;48.810;9.204;2023-02-21T07:53:27;99203.66;;;6.85;87.06
13765;BME280;6953;48.810;9.204;2023-02-21T07:55:53;99197.28;;;6.94;87.08
13765;BME280;6953;48.810;9.204;2023-02-21T07:58:18;99180.41;;;6.78;86.00
13765;BME280;6953;48.810;9.204;2023-02-21T08:00:44;99194.81;;;7.18;84.92
13765;BME280;6953;48.810;9.204;2023-02-21T08:03:11;98926.56;;;5.72;84.34
13765;BME280;6953;48.810;9.204;2023-02-21T08:05:37;99194.97;;;7.39;83.49
13765;BME280;6953;48.810;9.204;2023-02-21T08:08:06;99197.94;;;7.55;82.28
13765;BME280;6953;48.810;9.204;2023-02-21T08:10:32;99209.91;;;7.62;81.58
13765;BME280;6953;48.810;9.204;2023-02-21T08:12:57;98936.75;;;6.09;81.45
13765;BME280;6953;48.810;9.204;2023-02-21T08:15:23;99215.44;;;7.77;81.07
13765;BME280;6953;48.810;9.204;2023-02-21T08:17:49;98932.81;;;6.23;80.86
13765;BME280;6953;48.810;9.204;2023-02-21T08:20:15;99214.84;;;7.95;80.34
13765;BME280;6953;48.810;9.204;2023-02-21T08:22:40;99217.22;;;8.03;79.91
13765;BME280;6953;48.810;9.204;2023-02-21T08:25:06;99215.41;;;8.05;79.41
13765;BME280;6953;48.810;9.204;2023-02-21T08:27:31;99205.06;;;8.73;78.42
13765;BME280;6953;48.810;9.204;2023-02-21T08:29:57;99203.34;;;11.34;69.12
13765;BME280;6953;48.810;9.204;2023-02-21T08:32:22;99193.59;;;14.40;57.61
13765;BME280;6953;48.810;9.204;2023-02-21T08:34:48;99190.88;;;16.92;48.16
13765;BME280;6953;48.810;9.204;2023-02-21T08:37:14;99189.84;;;18.37;43.32
13765;BME280;6953;48.810;9.204;2023-02-21T08:39:50;99193.75;;;20.38;38.70
13765;BME280;6953;48.810;9.204;2023-02-21T08:42:20;99132.16;;;21.98;31.62
13765;BME280;6953;48.810;9.204;2023-02-21T08:44:46;99187.75;;;23.16;29.93
13765;BME280;6953;48.810;9.204;2023-02-21T08:47:13;99234.66;;;23.83;29.05
13765;BME280;6953;48.810;9.204;2023-02-21T08:49:39;99189.03;;;24.45;27.16
13765;BME280;6953;48.810;9.204;2023-02-21T08:52:07;99194.00;;;26.16;25.04
13765;BME280;6953;48.810;9.204;2023-02-21T08:54:32;99198.09;;;26.44;23.43
13765;BME280;6953;48.810;9.204;2023-02-21T08:56:57;99205.63;;;27.12;23.27
13765;BME280;6953;48.810;9.204;2023-02-21T08:59:23;99164.69;;;27.17;22.70
13765;BME280;6953;48.810;9.204;2023-02-21T09:01:49;99080.81;;;27.04;21.59
13765;BME280;6953;48.810;9.204;2023-02-21T09:04:14;99224.09;;;28.46;20.21
13765;BME280;6953;48.810;9.204;2023-02-21T09:06:40;99216.59;;;27.65;21.28
13765;BME280;6953;48.810;9.204;2023-02-21T09:09:05;99215.19;;;27.85;20.92
13765;BME280;6953;48.810;9.204;2023-02-21T09:11:30;99096.81;;;28.04;20.56
13765;BME280;6953;48.810;9.204;2023-02-21T09:13:56;99233.81;;;29.00;19.88
13765;BME280;6953;48.810;9.204;2023-02-21T09:16:21;99228.94;;;28.73;19.98
13765;BME280;6953;48.810;9.204;2023-02-21T09:18:54;99052.28;;;28.23;19.88
13765;BME280;6953;48.810;9.204;2023-02-21T09:21:20;99211.38;;;29.57;19.78
13765;BME280;6953;48.810;9.204;2023-02-21T09:23:45;99220.69;;;29.98;18.84
13765;BME280;6953;48.810;9.204;2023-02-21T09:26:10;99219.94;;;30.81;18.29
13765;BME280;6953;48.810;9.204;2023-02-21T09:28:36;99184.59;;;30.68;18.05
13765;BME280;6953;48.810;9.204;2023-02-21T09:31:07;99026.69;;;30.05;18.15
13765;BME280;6953;48.810;9.204;2023-02-21T09:33:36;99221.47;;;31.38;17.34
13765;BME280;6953;48.810;9.204;2023-02-21T09:36:08;99239.16;;;31.28;17.41
13765;BME280;6953;48.810;9.204;2023-02-21T09:38:34;99251.19;;;30.56;17.91
13765;BME280;6953;48.810;9.204;2023-02-21T09:41:01;99041.69;;;30.07;17.71
13765;BME280;6953;48.810;9.204;2023-02-21T09:43:35;99046.69;;;30.31;17.38
13765;BME280;6953;48.810;9.204;2023-02-21T09:46:28;99207.84;;;31.32;17.15
13765;BME280;6953;48.810;9.204;2023-02-21T09:48:50;99217.53;;;31.75;16.81
13765;BME280;6953;48.810;9.204;2023-02-21T09:51:16;99207.41;;;32.62;16.53
13765;BME280;6953;48.810;9.204;2023-02-21T09:53:43;99202.19;;;32.80;16.16
13765;BME280;6953;48.810;9.204;2023-02-21T09:56:13;99207.78;;;33.63;15.55
13765;BME280;6953;48.810;9.204;2023-02-21T09:58:43;99209.69;;;33.43;15.64
13765;BME280;6953;48.810;9.204;2023-02-21T10:01:21;99209.47;;;33.57;15.44
13765;BME280;6953;48.810;9.204;2023-02-21T10:06:23;99208.44;;;33.39;15.46
13765;BME280;6953;48.810;9.204;2023-02-21T10:11:36;99204.09;;;33.95;15.25
13765;BME280;6953;48.810;9.204;2023-02-21T10:14:29;99196.56;;;35.44;14.22
13765;BME280;6953;48.810;9.204;2023-02-21T10:17:05;99205.78;;;35.86;14.30
13765;BME280;6953;48.810;9.204;2023-02-21T10:19:43;99210.59;;;36.38;13.62
13765;BME280;6953;48.810;9.204;2023-02-21T10:22:19;99198.06;;;36.59;13.42
13765;BME280;6953;48.810;9.204;2023-02-21T10:24:46;99203.38;;;36.84;12.91
13765;BME280;6953;48.810;9.204;2023-02-21T10:27:16;99241.88;;;37.12;13.21
13765;BME280;6953;48.810;9.204;2023-02-21T10:30:05;99165.94;;;36.55;13.01
13765;BME280;6953;48.810;9.204;2023-02-21T10:32:35;99198.53;;;36.27;13.56
13765;BME280;6953;48.810;9.204;2023-02-21T10:35:00;99203.34;;;35.60;14.01
13765;BME280;6953;48.810;9.204;2023-02-21T10:37:55;99199.97;;;36.59;13.21
13765;BME280;6953;48.810;9.204;2023-02-21T10:40:26;99064.00;;;36.59;12.32
13765;BME280;6953;48.810;9.204;2023-02-21T10:43:02;99196.25;;;37.86;12.39
13765;BME280;6953;48.810;9.204;2023-02-21T10:45:38;99070.38;;;37.56;12.33
13765;BME280;6953;48.810;9.204;2023-02-21T10:48:08;99032.78;;;37.41;12.36
13765;BME280;6953;48.810;9.204;2023-02-21T10:53:08;99133.75;;;37.99;12.31
13765;BME280;6953;48.810;9.204;2023-02-21T10:56:18;99181.63;;;37.57;12.85
13765;BME280;6953;48.810;9.204;2023-02-21T10:58:48;99172.94;;;37.60;12.63
13765;BME280;6953;48.810;9.204;2023-02-21T11:01:17;99132.56;;;37.95;12.14
13765;BME280;6953;48.810;9.204;2023-02-21T11:03:48;99013.69;;;37.57;12.06
13765;BME280;6953;48.810;9.204;2023-02-21T11:06:23;99174.41;;;38.58;12.30
13765;BME280;6953;48.810;9.204;2023-02-21T11:08:49;99175.06;;;38.21;12.32
13765;BME280;6953;48.810;9.204;2023-02-21T11:11:14;99163.13;;;38.15;12.39
13765;BME280;6953;48.810;9.204;2023-02-21T11:13:40;99166.47;;;37.89;12.60
13765;BME280;6953;48.810;9.204;2023-02-21T11:16:09;99057.72;;;37.05;12.71
13765;BME280;6953;48.810;9.204;2023-02-21T11:18:36;98978.31;;;37.16;12.39
13765;BME280;6953;48.810;9.204;2023-02-21T11:21:16;99170.03;;;38.29;12.56
13765;BME280;6953;48.810;9.204;2023-02-21T11:24:01;99008.34;;;37.51;12.44
13765;BME280;6953;48.810;9.204;2023-02-21T11:26:30;99119.31;;;38.04;12.81
13765;BME280;6953;48.810;9.204;2023-02-21T11:29:09;98974.47;;;37.29;12.38
13765;BME280;6953;48.810;9.204;2023-02-21T11:31:36;98964.50;;;37.51;12.27
13765;BME280;6953;48.810;9.204;2023-02-21T11:34:03;99094.31;;;38.45;12.11
13765;BME280;6953;48.810;9.204;2023-02-21T11:36:35;99120.09;;;38.16;12.33
13765;BME280;6953;48.810;9.204;2023-02-21T11:39:23;99132.75;;;38.61;12.17
13765;BME280;6953;48.810;9.204;2023-02-21T11:41:55;99108.34;;;39.30;12.09
13765;BME280;6953;48.810;9.204;2023-02-21T11:44:32;99107.94;;;40.02;11.37
13765;BME280;6953;48.810;9.204;2023-02-21T11:47:25;99117.38;;;40.64;10.87
13765;BME280;6953;48.810;9.204;2023-02-21T11:49:59;99053.06;;;40.44;11.24
13765;BME280;6953;48.810;9.204;2023-02-21T11:52:48;99095.13;;;41.07;10.30
13765;BME280;6953;48.810;9.204;2023-02-21T11:55:18;99080.19;;;41.39;10.31
13765;BME280;6953;48.810;9.204;2023-02-21T12:00:32;99081.19;;;41.80;10.34
13765;BME280;6953;48.810;9.204;2023-02-21T12:05:46;99082.41;;;41.42;10.15
13765;BME280;6953;48.810;9.204;2023-02-21T12:08:37;99066.06;;;41.26;10.25
13765;BME280;6953;48.810;9.204;2023-02-21T12:14:18;98924.69;;;40.74;10.67
13765;BME280;6953;48.810;9.204;2023-02-21T12:17:10;99041.53;;;41.96;10.13
13765;BME280;6953;48.810;9.204;2023-02-21T12:25:31;99030.06;;;41.47;9.78
13765;BME280;6953;48.810;9.204;2023-02-21T12:28:05;99025.47;;;41.16;10.24
13765;BME280;6953;48.810;9.204;2023-02-21T12:30:59;99032.50;;;39.72;10.69
13765;BME280;6953;48.810;9.204;2023-02-21T12:38:55;99022.06;;;39.95;11.42
13765;BME280;6953;48.810;9.204;2023-02-21T12:44:12;98992.25;;;40.45;10.41
13765;BME280;6953;48.810;9.204;2023-02-21T12:46:44;98861.25;;;39.50;10.94
13765;BME280;6953;48.810;9.204;2023-02-21T12:51:51;98995.44;;;39.53;11.06
13765;BME280;6953;48.810;9.204;2023-02-21T12:54:37;98978.06;;;38.51;11.41
13765;BME280;6953;48.810;9.204;2023-02-21T12:57:18;98975.06;;;37.86;11.64
13765;BME280;6953;48.810;9.204;2023-02-21T13:02:28;98948.63;;;38.63;11.43
13765;BME280;6953;48.810;9.204;2023-02-21T13:05:08;98782.53;;;38.81;10.94
13765;BME280;6953;48.810;9.204;2023-02-21T13:10:21;98905.22;;;39.72;10.43
13765;BME280;6953;48.810;9.204;2023-02-21T13:12:58;98790.06;;;39.49;10.46
13765;BME280;6953;48.810;9.204;2023-02-21T13:15:29;98950.41;;;39.85;10.58
13765;BME280;6953;48.810;9.204;2023-02-21T13:18:02;98924.25;;;38.87;11.10
13765;BME280;6953;48.810;9.204;2023-02-21T13:20:39;98868.09;;;37.53;11.66
13765;BME280;6953;48.810;9.204;2023-02-21T13:23:06;98944.53;;;37.66;12.14
13765;BME280;6953;48.810;9.204;2023-02-21T13:26:01;98915.75;;;35.82;12.89
13765;BME280;6953;48.810;9.204;2023-02-21T13:28:30;98682.69;;;31.88;15.01
13765;BME280;6953;48.810;9.204;2023-02-21T13:31:02;98894.28;;;30.50;16.95
13765;BME280;6953;48.810;9.204;2023-02-21T13:33:29;98922.56;;;28.39;18.97
13765;BME280;6953;48.810;9.204;2023-02-21T13:36:00;98909.47;;;26.64;20.48
13765;BME280;6953;48.810;9.204;2023-02-21T13:38:30;98830.28;;;25.27;21.98
13765;BME280;6953;48.810;9.204;2023-02-21T13:41:06;98671.81;;;23.66;22.84
13765;BME280;6953;48.810;9.204;2023-02-21T13:43:35;98849.38;;;24.34;24.26
13765;BME280;6953;48.810;9.204;2023-02-21T13:49:35;98820.31;;;23.55;25.61
13765;BME280;6953;48.810;9.204;2023-02-21T14:08:13;98506.56;;;19.20;30.28
13765;BME280;6953;48.810;9.204;2023-02-21T14:10:49;98774.41;;;20.66;31.10
13765;BME280;6953;48.810;9.204;2023-02-21T14:18:50;98775.22;;;20.19;32.73
13765;BME280;6953;48.810;9.204;2023-02-21T14:21:29;98746.59;;;20.02;33.15
13765;BME280;6953;48.810;9.204;2023-02-21T14:24:15;98739.09;;;19.87;33.86
13765;BME280;6953;48.810;9.204;2023-02-21T14:27:33;98549.09;;;18.62;33.95
13765;BME280;6953;48.810;9.204;2023-02-21T14:29:42;98739.03;;;19.68;34.97
13765;BME280;6953;48.810;9.204;2023-02-21T14:37:41;98746.78;;;19.41;35.46
13765;BME280;6953;48.810;9.204;2023-02-21T14:43:24;98763.63;;;19.21;37.07
13765;BME280;6953;48.810;9.204;2023-02-21T14:57:42;98719.47;;;18.88;39.35
13765;BME280;6953;48.810;9.204;2023-02-21T15:00:27;98477.31;;;17.41;39.85
13765;BME280;6953;48.810;9.204;2023-02-21T15:05:32;98519.34;;;17.56;39.96
13765;BME280;6953;48.810;9.204;2023-02-21T15:08:24;98717.81;;;18.67;40.39
13765;BME280;6953;48.810;9.204;2023-02-21T15:10:57;98754.31;;;18.65;40.40
13765;BME280;6953;48.810;9.204;2023-02-21T15:15:59;98709.78;;;18.58;40.78
13765;BME280;6953;48.810;9.204;2023-02-21T15:18:32;98492.91;;;17.23;40.84
13765;BME280;6953;48.810;9.204;2023-02-21T15:23:44;98735.97;;;18.42;42.01
13765;BME280;6953;48.810;9.204;2023-02-21T15:28:46;98716.44;;;18.32;44.01
13765;BME280;6953;48.810;9.204;2023-02-21T15:31:27;98646.09;;;17.84;44.74
13765;BME280;6953;48.810;9.204;2023-02-21T15:33:52;98712.22;;;18.18;44.87
13765;BME280;6953;48.810;9.204;2023-02-21T15:36:20;98481.50;;;16.80;45.14
13765;BME280;6953;48.810;9.204;2023-02-21T15:38:51;98682.53;;;17.93;45.70
13765;BME280;6953;48.810;9.204;2023-02-21T15:44:00;98411.38;;;16.20;46.03
13765;BME280;6953;48.810;9.204;2023-02-21T15:46:31;98692.34;;;17.81;46.40
13765;BME280;6953;48.810;9.204;2023-02-21T15:49:01;98662.63;;;17.56;46.83
13765;BME280;6953;48.810;9.204;2023-02-21T15:51:27;98626.22;;;17.25;47.58
13765;BME280;6953;48.810;9.204;2023-02-21T15:54:08;98621.06;;;17.13;48.10
13765;BME280;6953;48.810;9.204;2023-02-21T15:56:34;98658.78;;;17.27;48.15
13765;BME280;6953;48.810;9.204;2023-02-21T15:59:16;98433.31;;;15.89;48.41
13765;BME280;6953;48.810;9.204;2023-02-21T16:01:42;98693.25;;;17.27;49.13